Time;durP1;ratioP1;P1;durP2;ratioP2;P2;SDS_P1;SDS_P2;PMS_P1;PMS_P2;Temp;Humidity;BMP_temperature;BMP_pressure;BME280_temperature;BME280_humidity;BME280_pressure;Samples;Min_cycle;Max_cycle;Signal;HPM_P1;HPM_P2
2022/03/20 00:00:29;;;;;;;30.85;18.77;;;8.50;67.80;;;6.44;58.50;102266.84;4991237;28;20604;-75
2022/03/20 00:02:57;;;;;;;28.80;19.48;;;8.50;67.80;;;6.43;58.67;102258.84;4991215;28;20093;-75
2022/03/20 00:05:26;;;;;;;31.42;19.20;;;8.40;67.70;;;6.39;58.31;102252.81;4991432;28;20510;-75
2022/03/20 00:07:53;;;;;;;35.60;19.80;;;8.40;67.60;;;6.34;59.22;102248.72;4990639;28;20034;-74
2022/03/20 00:10:20;;;;;;;33.42;19.38;;;8.40;67.90;;;6.33;58.89;102241.59;4990737;28;20070;-74
2022/03/20 00:12:47;;;;;;;31.98;19.45;;;8.40;67.90;;;6.33;59.06;102247.00;4991375;28;20048;-75
2022/03/20 00:15:15;;;;;;;31.48;19.58;;;8.40;68.30;;;6.33;59.21;102241.59;4991408;28;20505;-75
2022/03/20 00:17:43;;;;;;;30.27;19.27;;;8.40;68.40;;;6.19;59.34;102224.56;4990739;28;20042;-75
2022/03/20 00:20:11;;;;;;;30.25;19.08;;;8.30;68.40;;;6.18;59.35;102221.97;4990799;28;20125;-75
2022/03/20 00:22:40;;;;;;;29.63;19.63;;;8.30;68.60;;;6.15;60.10;102223.06;4991095;28;20102;-75
2022/03/20 00:25:08;;;;;;;33.85;18.92;;;8.30;68.90;;;6.11;60.25;102218.88;4991231;28;20043;-75
2022/03/20 00:27:35;;;;;;;31.40;19.65;;;8.20;69.10;;;6.06;60.25;102218.34;4990369;28;20516;-75
2022/03/20 00:30:03;;;;;;;31.67;19.67;;;8.20;69.10;;;6.09;60.57;102211.84;5024100;23;20052;-77
2022/03/20 00:32:30;;;;;;;29.33;19.27;;;8.20;69.50;;;6.08;59.94;102216.38;5030272;28;20073;-77
2022/03/20 00:34:59;;;;;;;31.15;18.98;;;8.20;69.30;;;5.98;60.73;102202.69;5030291;28;20106;-77
2022/03/20 00:37:27;;;;;;;33.30;20.00;;;8.20;69.40;;;6.00;60.86;102202.59;5030220;28;20038;-77
2022/03/20 00:39:56;;;;;;;31.95;20.00;;;8.10;69.90;;;6.01;60.46;102207.84;5012066;28;20053;-77
2022/03/20 00:42:23;;;;;;;30.08;19.17;;;8.10;69.70;;;6.03;61.00;102199.63;5010437;28;20124;-77
2022/03/20 00:44:50;;;;;;;33.75;19.00;;;8.10;69.80;;;6.00;60.46;102191.78;5010281;28;20033;-77
2022/03/20 00:47:18;;;;;;;30.00;18.52;;;8.00;69.80;;;5.95;60.68;102193.91;5010218;28;20044;-77
2022/03/20 00:49:45;;;;;;;32.42;19.42;;;8.10;69.80;;;5.97;60.61;102186.59;5009943;28;20069;-77
2022/03/20 00:52:12;;;;;;;31.98;18.75;;;8.00;69.90;;;5.96;60.92;102168.63;5009928;28;20125;-77
2022/03/20 00:54:39;;;;;;;31.23;19.98;;;8.00;70.10;;;5.90;61.24;102177.16;5010251;28;20121;-77
2022/03/20 00:57:08;;;;;;;31.77;19.90;;;8.00;70.30;;;5.90;61.28;102178.00;5009892;28;20038;-77
2022/03/20 00:59:35;;;;;;;30.25;18.60;;;8.00;70.20;;;5.90;61.15;102175.31;5009926;28;20049;-77
2022/03/20 01:02:04;;;;;;;30.88;19.13;;;7.90;70.30;;;5.87;60.94;102167.47;5008987;28;20046;-76
2022/03/20 01:04:32;;;;;;;34.47;18.85;;;8.00;70.10;;;5.86;61.06;102172.00;5010052;28;20057;-77
2022/03/20 01:07:00;;;;;;;29.25;19.33;;;7.90;70.30;;;5.79;60.75;102168.03;5009602;28;20038;-76
2022/03/20 01:09:27;;;;;;;33.45;20.30;;;7.90;70.00;;;5.78;61.03;102162.72;5009343;28;20048;-77
2022/03/20 01:11:55;;;;;;;32.08;19.52;;;7.90;70.00;;;5.76;61.00;102161.97;5009129;28;20046;-77
2022/03/20 01:14:24;;;;;;;33.30;20.08;;;7.90;69.80;;;5.73;60.79;102157.66;5010162;28;20509;-77
2022/03/20 01:16:52;;;;;;;30.02;19.08;;;7.80;69.70;;;5.72;60.99;102152.38;5009762;28;20592;-77
2022/03/20 01:19:20;;;;;;;33.53;19.80;;;7.80;69.90;;;5.74;60.68;102147.72;5009881;28;20048;-77
2022/03/20 01:21:48;;;;;;;33.10;19.80;;;7.80;69.70;;;5.65;60.59;102143.84;5008187;28;20049;-77
2022/03/20 01:24:15;;;;;;;35.05;20.20;;;7.80;69.60;;;5.66;60.36;102132.94;5009749;28;20053;-77
2022/03/20 01:26:42;;;;;;;32.65;20.20;;;7.70;69.50;;;5.66;60.49;102134.78;4988418;28;20054;-77
2022/03/20 01:29:09;;;;;;;32.30;19.30;;;7.70;69.80;;;5.66;60.14;102135.63;4989936;28;20054;-77
2022/03/20 01:31:39;;;;;;;34.83;19.17;;;7.70;69.30;;;5.64;59.70;102131.34;4974631;28;20736;-77
2022/03/20 01:34:07;;;;;;;29.45;18.70;;;7.70;69.20;;;5.65;59.90;102133.03;4970547;28;20125;-77
2022/03/20 01:36:34;;;;;;;33.85;19.75;;;7.70;69.30;;;5.59;59.55;102130.78;4984372;28;20357;-76
2022/03/20 01:39:02;;;;;;;31.73;19.40;;;7.60;68.80;;;5.54;59.49;102119.47;4989125;28;21276;-77
2022/03/20 01:41:29;;;;;;;38.13;18.90;;;7.60;68.80;;;5.44;59.59;102117.44;4988873;28;20468;-77
2022/03/20 01:44:00;;;;;;;27.70;18.70;;;7.60;68.80;;;5.49;60.29;102114.41;4989759;28;20048;-77
2022/03/20 01:46:29;;;;;;;32.88;19.83;;;7.60;69.20;;;5.47;59.87;102103.72;4989765;28;20134;-77
2022/03/20 01:48:58;;;;;;;31.95;18.67;;;7.60;68.90;;;5.47;59.75;102109.13;4989374;28;20417;-77
2022/03/20 01:54:06;;;;;;;29.63;18.90;;;7.50;68.90;;;5.44;59.65;102087.72;4988792;28;20046;-77
2022/03/20 01:56:34;;;;;;;32.85;18.95;;;7.50;68.80;;;5.43;59.61;102086.00;4989078;28;20104;-77
2022/03/20 01:59:03;;;;;;;32.58;19.85;;;7.50;69.00;;;5.45;59.87;102094.00;4984709;28;20046;-77
2022/03/20 02:01:31;;;;;;;31.35;18.77;;;7.60;68.90;;;5.44;59.47;102081.47;4989268;28;20038;-77
2022/03/20 02:04:01;;;;;;;30.95;19.45;;;7.60;68.90;;;5.45;59.20;102067.88;4987982;28;20042;-77
2022/03/20 02:06:28;;;;;;;33.63;19.77;;;7.50;68.80;;;5.47;59.45;102068.59;4970072;28;20058;-77
2022/03/20 02:08:56;;;;;;;32.45;19.08;;;7.60;68.80;;;5.51;58.69;102071.94;4979559;28;20575;-77
2022/03/20 02:11:26;;;;;;;27.60;18.10;;;7.50;68.40;;;5.48;59.20;102061.38;4970854;28;20062;-77
2022/03/20 02:13:54;;;;;;;29.67;18.88;;;7.50;68.80;;;5.49;59.07;102068.50;4984844;28;20138;-77
2022/03/20 02:16:21;;;;;;;32.05;19.25;;;7.50;68.80;;;5.51;59.08;102057.59;4988997;28;20052;-76
2022/03/20 02:18:50;;;;;;;36.67;20.25;;;7.50;68.80;;;5.53;58.47;102058.34;4989018;28;20161;-76
2022/03/20 02:21:39;;;;;;;31.45;18.60;;;7.50;68.40;;;5.57;58.82;102043.63;4988732;28;20100;-77
2022/03/20 02:24:22;;;;;;;33.15;19.63;;;7.50;68.40;;;5.58;58.38;102051.63;4989511;28;20046;-77
2022/03/20 02:26:49;;;;;;;30.67;19.27;;;7.50;68.30;;;5.55;58.10;102040.19;4970254;28;20100;-77
2022/03/20 02:29:16;;;;;;;32.63;19.50;;;7.50;68.20;;;5.43;58.18;102039.25;4988876;28;20041;-77
2022/03/20 02:31:43;;;;;;;31.60;19.00;;;7.50;67.70;;;5.41;58.00;102042.06;4989222;28;20121;-77
2022/03/20 02:34:11;;;;;;;33.25;19.48;;;7.50;67.80;;;5.46;58.30;102028.22;4993207;28;20050;-77
2022/03/20 02:36:39;;;;;;;32.58;18.55;;;7.50;67.90;;;5.58;57.80;102023.72;4992696;28;20046;-77
2022/03/20 02:39:08;;;;;;;35.15;19.27;;;7.60;67.80;;;5.61;57.44;102026.22;4973648;28;20034;-77
2022/03/20 02:41:38;;;;;;;33.20;19.23;;;7.50;67.70;;;5.58;57.21;102030.03;4984261;28;20042;-77
2022/03/20 02:44:05;;;;;;;33.25;19.50;;;7.40;67.10;;;5.54;57.51;102016.84;4992615;28;20107;-77
2022/03/20 02:46:37;;;;;;;32.22;19.42;;;7.50;67.50;;;5.56;57.26;102028.38;4992893;28;20125;-77
2022/03/20 02:49:06;;;;;;;31.10;19.05;;;7.50;67.20;;;5.57;57.22;102011.22;4993004;28;20811;-77
2022/03/20 02:51:35;;;;;;;34.67;20.23;;;7.50;67.20;;;5.59;57.15;102009.28;4992665;28;20046;-77
2022/03/20 02:54:05;;;;;;;30.35;18.52;;;7.50;67.10;;;5.60;56.95;102011.88;4992863;28;20042;-77
2022/03/20 02:56:33;;;;;;;37.33;20.35;;;7.50;66.70;;;5.62;56.41;102011.75;4991217;28;20089;-77
2022/03/20 02:59:02;;;;;;;29.73;19.55;;;7.50;66.60;;;5.64;56.95;102007.09;4992850;28;20452;-77
2022/03/20 03:01:30;;;;;;;30.75;18.95;;;7.50;66.90;;;5.60;56.77;102008.31;4984840;28;20501;-77
2022/03/20 03:03:58;;;;;;;29.98;19.15;;;7.40;66.40;;;5.64;57.06;101999.00;4992476;28;20046;-77
2022/03/20 03:06:25;;;;;;;30.23;18.95;;;7.50;66.90;;;5.69;56.23;101999.47;4991808;28;20092;-77
2022/03/20 03:11:38;;;;;;;33.55;19.85;;;7.50;66.30;;;5.67;56.06;101987.94;4990883;28;20089;-77
2022/03/20 03:16:47;;;;;;;32.25;18.88;;;7.50;66.40;;;5.66;56.05;101980.81;4991407;28;20501;-76
2022/03/20 03:19:15;;;;;;;33.95;19.77;;;7.50;66.30;;;5.52;56.12;101989.97;4992278;28;20117;-76
2022/03/20 03:21:43;;;;;;;33.67;18.42;;;7.40;66.00;;;5.54;56.38;101976.34;4992057;28;20038;-77
2022/03/20 03:24:10;;;;;;;30.92;18.38;;;7.40;66.30;;;5.53;56.22;101971.94;4992055;28;20222;-77
2022/03/20 03:26:39;;;;;;;36.60;19.92;;;7.40;66.30;;;5.55;56.38;101964.56;4992566;28;20153;-77
2022/03/20 03:29:06;;;;;;;32.85;18.88;;;7.40;66.10;;;5.51;56.32;101963.94;4991759;28;20668;-77
2022/03/20 03:31:34;;;;;;;30.55;18.25;;;7.40;66.20;;;5.46;55.97;101958.91;4991942;28;20659;-77
2022/03/20 03:36:46;;;;;;;31.35;19.65;;;7.40;65.60;;;5.42;55.88;101960.09;4992175;28;20064;-77
2022/03/20 03:39:13;;;;;;;34.47;19.63;;;7.40;65.80;;;5.43;56.10;101951.03;4991751;28;20049;-77
2022/03/20 03:41:42;;;;;;;32.58;19.17;;;7.40;66.00;;;5.47;56.48;101944.41;4991598;28;20042;-76
2022/03/20 03:44:09;;;;;;;33.53;18.95;;;7.40;66.20;;;5.44;55.99;101941.94;4987694;28;20042;-77
2022/03/20 03:46:37;;;;;;;36.88;20.13;;;7.30;66.30;;;5.42;56.62;101938.47;4991813;28;20129;-76
2022/03/20 03:49:04;;;;;;;34.35;19.17;;;7.40;66.10;;;5.45;55.95;101934.72;4991723;28;20042;-77
2022/03/20 03:51:31;;;;;;;31.00;19.35;;;7.40;65.90;;;5.45;55.98;101938.25;4991405;28;20125;-77
2022/03/20 03:53:59;;;;;;;35.85;21.25;;;7.40;65.90;;;5.40;55.49;101924.25;4991547;28;20073;-77
2022/03/20 03:56:26;;;;;;;31.25;20.20;;;7.40;65.70;;;5.41;55.92;101912.47;4991468;28;20133;-77
2022/03/20 03:58:55;;;;;;;33.50;20.13;;;7.40;65.60;;;5.48;55.76;101921.84;4991432;28;20101;-77
2022/03/20 04:01:22;;;;;;;31.77;19.50;;;7.30;65.70;;;5.47;55.41;101922.81;4991482;28;20057;-77
2022/03/20 04:03:49;;;;;;;28.98;18.45;;;7.30;65.40;;;5.44;55.26;101925.72;4991440;28;20074;-77
2022/03/20 04:06:17;;;;;;;31.90;19.33;;;7.30;65.20;;;5.48;55.49;101924.53;4991354;28;20073;-76
2022/03/20 04:08:44;;;;;;;33.10;19.55;;;7.30;65.40;;;5.46;55.36;101926.50;4990936;28;20141;-77
2022/03/20 04:11:13;;;;;;;33.78;19.27;;;7.30;65.40;;;5.45;55.18;101922.06;4991137;28;20134;-77
2022/03/20 04:13:41;;;;;;;30.67;18.83;;;7.30;65.00;;;5.48;55.63;101919.16;4991255;28;20579;-76
2022/03/20 04:16:09;;;;;;;35.00;18.48;;;7.30;65.30;;;5.49;54.65;101911.91;4990983;28;20113;-76
2022/03/20 04:18:37;;;;;;;30.92;18.80;;;7.30;65.40;;;5.41;54.55;101901.69;4991040;28;20104;-77
2022/03/20 04:21:05;;;;;;;33.20;18.80;;;7.30;64.70;;;5.37;54.23;101907.41;4990894;28;20053;-77
2022/03/20 04:23:46;;;;;;;30.48;18.38;;;7.30;64.60;;;5.41;54.80;101903.53;4990812;28;20125;-77
2022/03/20 04:26:15;;;;;;;32.23;18.23;;;7.30;64.70;;;5.43;55.04;101901.56;4990899;28;20566;-77
2022/03/20 04:28:44;;;;;;;34.30;19.55;;;7.20;64.90;;;5.42;54.73;101906.09;4990976;28;20100;-77
2022/03/20 04:31:15;;;;;;;29.77;18.45;;;7.30;64.50;;;5.35;54.38;101896.75;4976519;28;20120;-77
2022/03/20 04:33:42;;;;;;;;;;;7.20;64.40;;;5.34;53.79;101897.72;4991320;28;20122;-77
2022/03/20 04:36:10;;;;;;;27.00;17.90;;;7.20;64.10;;;5.38;54.51;101899.19;4990931;28;20016;-77
2022/03/20 04:38:37;;;;;;;29.88;18.58;;;7.20;64.10;;;5.32;53.29;101886.19;4990567;28;20130;-77
2022/03/20 04:41:05;;;;;;;29.50;18.30;;;7.20;63.80;;;5.28;54.22;101880.16;4990518;28;20126;-77
2022/03/20 04:43:32;;;;;;;32.15;18.92;;;7.10;64.00;;;5.36;54.25;101879.56;4990688;28;20527;-77
2022/03/20 04:46:00;;;;;;;30.10;18.23;;;7.10;64.00;;;5.37;54.57;101892.09;4990539;28;20047;-77
2022/03/20 04:59:34;;;;;;;30.48;18.75;;;7.10;63.60;;;5.23;54.12;101889.56;4990499;28;20081;-77
2022/03/20 05:02:02;;;;;;;30.90;18.70;;;7.10;63.60;;;5.21;53.86;101891.53;4989831;28;20505;-77
2022/03/20 05:04:31;;;;;;;29.98;18.70;;;7.10;63.70;;;5.17;54.05;101884.66;4990154;28;20097;-76
2022/03/20 05:06:58;;;;;;;29.33;18.63;;;7.10;63.80;;;5.08;54.14;101881.66;4990402;28;20196;-75
2022/03/20 05:14:58;;;;;;;33.03;18.67;;;7.10;63.80;;;4.86;54.59;101876.16;4990037;28;20575;-75
2022/03/20 05:17:25;;;;;;;30.40;17.40;;;7.00;63.90;;;4.86;54.22;101865.34;4990190;28;20053;-76
2022/03/20 05:19:54;;;;;;;31.75;17.98;;;7.00;63.70;;;4.82;54.48;101869.28;4989532;28;20054;-77
2022/03/20 05:22:21;;;;;;;32.75;17.85;;;6.90;63.70;;;4.81;54.67;101867.53;4989731;28;20611;-76
2022/03/20 05:24:49;;;;;;;29.75;17.85;;;6.90;63.60;;;4.82;54.11;101869.28;4988273;28;20420;-78
2022/03/20 05:27:16;;;;;;;31.17;18.73;;;6.90;63.80;;;4.76;54.08;101870.59;4989657;28;20077;-77
2022/03/20 05:29:43;;;;;;;30.05;17.98;;;6.80;63.60;;;4.69;53.93;101859.38;4989707;28;20429;-76
2022/03/20 05:32:10;;;;;;;33.05;18.85;;;6.80;63.50;;;4.67;54.18;101861.31;4989531;28;20042;-77
2022/03/20 05:34:38;;;;;;;31.63;17.35;;;6.80;63.50;;;4.60;54.41;101854.66;4990115;28;20068;-77
2022/03/20 05:37:09;;;;;;;33.40;18.33;;;6.80;63.40;;;4.61;54.39;101855.53;4989432;28;20057;-77
2022/03/20 05:39:36;;;;;;;30.83;18.67;;;6.80;63.50;;;4.60;54.32;101851.09;4989883;28;20227;-76
2022/03/20 05:42:04;;;;;;;34.00;19.85;;;6.70;63.60;;;4.60;54.79;101853.78;4989558;28;20436;-77
2022/03/20 05:44:32;;;;;;;34.55;18.88;;;6.70;64.00;;;4.58;54.84;101855.75;4989459;28;20050;-77
2022/03/20 05:47:02;;;;;;;32.67;18.40;;;6.70;64.10;;;4.52;53.84;101846.28;4989925;28;20054;-77
2022/03/20 05:49:29;;;;;;;26.90;16.88;;;6.60;63.40;;;4.47;54.13;101853.81;4989504;28;20421;-77
2022/03/20 05:51:57;;;;;;;31.80;17.77;;;6.60;63.70;;;4.37;53.66;101842.00;4971475;28;20472;-76
2022/03/20 05:54:26;;;;;;;30.58;17.13;;;6.70;63.30;;;4.36;55.10;101843.84;4989724;28;20058;-77
2022/03/20 05:59:38;;;;;;;29.63;17.98;;;6.60;63.60;;;4.36;54.26;101819.59;4989641;28;20068;-76
2022/03/20 06:02:08;;;;;;;31.83;17.65;;;6.60;63.60;;;4.43;54.91;101844.25;4989104;28;20813;-77
2022/03/20 06:04:35;;;;;;;29.58;17.25;;;6.60;63.80;;;4.48;54.50;101823.22;4989377;28;20057;-77
2022/03/20 06:07:02;;;;;;;32.63;18.20;;;6.60;63.60;;;4.43;54.08;101817.28;4990261;28;20058;-76
2022/03/20 06:09:31;;;;;;;31.13;17.88;;;6.50;63.00;;;4.41;53.71;101806.63;4993668;28;20041;-77
2022/03/20 06:11:58;;;;;;;27.77;17.52;;;6.50;63.30;;;4.45;53.36;101818.03;4993159;28;20046;-76
2022/03/20 06:14:25;;;;;;;30.60;17.60;;;6.50;62.80;;;4.47;52.96;101837.66;4993956;28;20233;-77
2022/03/20 06:16:53;;;;;;;28.65;17.52;;;6.50;62.70;;;4.54;53.17;101827.28;4993454;28;20046;-76
2022/03/20 06:19:20;;;;;;;29.58;17.42;;;6.50;62.50;;;4.59;53.05;101846.66;4993569;28;20045;-77
2022/03/20 06:21:48;;;;;;;30.02;17.70;;;6.50;62.50;;;4.60;53.17;101843.00;4988082;28;20062;-77
2022/03/20 06:24:15;;;;;;;33.03;19.23;;;6.60;62.60;;;4.60;52.87;101837.63;4973882;28;20101;-77
2022/03/20 06:26:44;;;;;;;29.92;17.30;;;6.60;61.90;;;4.69;52.90;101842.34;4988784;28;20076;-77
2022/03/20 06:29:11;;;;;;;30.48;17.45;;;6.60;62.70;;;4.70;52.44;101846.75;5018489;22;20546;-75
2022/03/20 06:31:39;;;;;;;29.13;16.95;;;6.60;62.10;;;4.72;52.34;101844.78;5011614;28;20057;-75
2022/03/20 06:34:06;;;;;;;30.38;18.27;;;6.60;61.90;;;4.80;52.71;101852.34;5012556;28;20088;-75
2022/03/20 06:36:33;;;;;;;28.50;16.65;;;6.60;62.10;;;4.84;52.39;101851.97;5012268;28;20049;-75
2022/03/20 06:39:00;;;;;;;34.53;18.17;;;6.60;62.10;;;4.89;51.84;101848.94;5012317;28;20066;-75
2022/03/20 06:41:28;;;;;;;30.92;17.83;;;6.60;61.80;;;4.86;51.93;101849.19;5012014;28;20049;-75
2022/03/20 06:43:56;;;;;;;29.50;16.73;;;6.70;61.70;;;4.89;51.63;101848.94;5012626;28;20104;-75
2022/03/20 06:46:27;;;;;;;28.00;17.45;;;6.70;61.70;;;4.95;52.02;101853.00;5012424;28;20042;-75
2022/03/20 06:48:54;;;;;;;29.80;17.52;;;6.80;62.00;;;5.04;52.26;101858.56;5012219;28;20143;-75
2022/03/20 06:51:22;;;;;;;31.08;18.25;;;6.80;62.20;;;5.16;52.39;101850.53;5011417;28;20045;-75
2022/03/20 06:53:49;;;;;;;28.45;17.88;;;6.90;62.30;;;5.19;51.94;101850.31;5012028;28;20034;-75
2022/03/20 06:56:17;;;;;;;29.13;17.45;;;6.90;61.90;;;5.23;51.25;101847.25;5012342;28;20050;-75
2022/03/20 06:58:44;;;;;;;28.90;17.33;;;6.90;61.60;;;5.27;51.36;101843.34;5011600;28;20041;-75
2022/03/20 07:01:12;;;;;;;33.25;17.15;;;7.00;61.20;;;5.32;51.04;101845.69;5008559;28;20057;-75
2022/03/20 07:03:40;;;;;;;36.45;18.40;;;7.00;61.30;;;5.36;51.10;101846.31;5011700;28;20119;-75
2022/03/20 07:06:07;;;;;;;26.20;16.75;;;7.00;60.80;;;5.42;50.84;101835.88;5011929;28;20042;-75
2022/03/20 07:08:34;;;;;;;27.83;16.83;;;7.00;61.20;;;5.39;50.60;101825.34;5011763;28;20053;-74
2022/03/20 07:11:01;;;;;;;30.48;17.73;;;7.10;60.50;;;5.38;50.31;101836.25;5011412;28;20081;-75
2022/03/20 07:16:16;;;;;;;27.73;17.10;;;7.10;60.30;;;5.46;50.49;101837.41;4992293;28;20054;-74
2022/03/20 07:18:45;;;;;;;28.80;17.40;;;7.10;60.40;;;5.52;50.23;101824.38;5008138;28;20133;-74
2022/03/20 07:21:14;;;;;;;29.45;17.38;;;7.20;60.40;;;5.57;49.98;101833.00;5011481;28;20073;-74
2022/03/20 07:23:42;;;;;;;30.95;18.08;;;7.20;60.40;;;5.58;49.93;101821.19;5011457;28;20072;-74
2022/03/20 07:31:40;;;;;;;29.90;18.20;;;7.30;60.00;;;5.76;49.95;101810.81;5010643;28;20049;-74
2022/03/20 07:34:07;;;;;;;33.90;17.85;;;7.40;59.80;;;5.86;50.03;101799.16;5011551;28;20092;-74
2022/03/20 07:36:34;;;;;;;30.73;18.02;;;7.50;60.20;;;5.82;49.75;101805.75;5011346;28;20073;-74
2022/03/20 07:39:02;;;;;;;31.83;18.13;;;7.50;59.70;;;5.89;49.71;101798.03;5011617;28;20133;-74
2022/03/20 07:41:29;;;;;;;28.63;17.75;;;7.50;59.90;;;5.96;49.44;101788.50;5010959;28;20045;-74
2022/03/20 07:43:57;;;;;;;29.17;17.90;;;7.50;59.70;;;5.98;49.93;101783.84;5011461;28;20049;-74
2022/03/20 07:46:24;;;;;;;31.10;18.38;;;7.60;59.70;;;6.03;49.48;101780.75;5010859;28;20116;-74
2022/03/20 07:48:53;;;;;;;34.00;18.90;;;7.60;59.40;;;6.13;49.70;101775.44;5010937;28;20088;-74
2022/03/20 07:51:21;;;;;;;32.05;18.35;;;7.70;59.90;;;6.19;49.08;101778.53;5011083;28;20050;-74
2022/03/20 07:53:48;;;;;;;32.47;18.33;;;7.70;59.30;;;6.25;49.54;101771.78;5011348;28;20050;-74
2022/03/20 07:56:18;;;;;;;32.53;18.80;;;7.80;59.60;;;6.36;49.10;101768.16;5011193;28;20069;-73
2022/03/20 07:58:45;;;;;;;32.97;18.80;;;7.80;59.80;;;6.33;49.15;101763.03;5010641;28;20041;-74
2022/03/20 08:01:13;;;;;;;30.48;17.48;;;7.90;59.00;;;6.43;49.46;101756.72;5010691;28;20041;-74
2022/03/20 08:03:41;;;;;;;30.20;17.65;;;7.90;59.60;;;6.53;48.75;101759.53;5011045;28;20049;-73
2022/03/20 08:06:11;;;;;;;32.33;18.77;;;8.00;59.60;;;6.52;48.91;101747.00;5010651;28;20089;-74
2022/03/20 08:08:39;;;;;;;29.83;17.75;;;8.10;59.20;;;6.60;48.62;101739.09;5010749;28;20061;-73
2022/03/20 08:11:07;;;;;;;31.15;19.23;;;8.10;59.00;;;6.62;48.26;101745.22;5009467;28;20488;-74
2022/03/20 08:13:35;;;;;;;30.52;18.60;;;8.10;58.30;;;6.72;48.55;101741.75;5010065;28;20045;-74
2022/03/20 08:16:02;;;;;;;33.17;17.75;;;8.20;58.40;;;6.81;48.59;101741.81;5010644;28;20042;-74
2022/03/20 08:18:30;;;;;;;31.52;18.48;;;8.30;58.60;;;6.90;48.08;101732.09;5010129;28;20411;-73
2022/03/20 08:20:57;;;;;;;31.10;18.20;;;8.30;58.60;;;6.99;48.10;101731.31;5009851;28;20101;-73
2022/03/20 08:23:26;;;;;;;32.53;18.40;;;8.40;58.30;;;7.06;47.90;101720.78;5010765;28;20656;-74
2022/03/20 08:25:53;;;;;;;33.88;19.33;;;8.40;58.30;;;7.11;48.49;101715.00;5010712;28;20091;-73
2022/03/20 08:28:20;;;;;;;33.13;19.67;;;8.50;58.60;;;7.14;48.34;101703.88;5010433;28;20054;-74
2022/03/20 08:30:47;;;;;;;34.35;19.17;;;8.50;58.30;;;7.21;47.43;101719.47;5009472;28;20038;-75
2022/03/20 08:33:15;;;;;;;35.25;20.25;;;8.60;57.80;;;7.21;47.50;101715.91;5010503;28;20120;-75
2022/03/20 08:35:42;;;;;;;33.38;18.60;;;8.60;57.90;;;7.15;47.21;101708.31;5008000;28;20052;-75
2022/03/20 08:38:09;;;;;;;32.25;19.67;;;8.60;57.70;;;7.18;47.18;101713.50;5004190;28;20092;-76
2022/03/20 08:40:38;;;;;;;29.30;18.60;;;8.60;57.40;;;7.24;47.80;101702.13;5009787;28;20053;-75
2022/03/20 08:43:06;;;;;;;34.70;20.10;;;8.60;57.60;;;7.34;47.95;101689.47;5009954;28;20128;-75
2022/03/20 08:45:34;;;;;;;38.03;19.88;;;8.70;57.90;;;7.35;47.61;101685.78;5010236;28;20044;-74
2022/03/20 08:48:01;;;;;;;31.08;19.77;;;8.70;57.90;;;7.18;47.43;101678.28;5009892;28;20057;-74
2022/03/20 08:50:29;;;;;;;34.10;20.45;;;8.60;57.10;;;7.15;47.36;101683.97;5009715;28;20042;-74
2022/03/20 08:52:56;;;;;;;33.10;20.10;;;8.70;57.80;;;7.12;48.11;101678.81;5010162;28;20515;-74
2022/03/20 08:55:23;;;;;;;31.52;19.73;;;8.70;57.70;;;7.18;47.68;101676.44;5009632;28;20050;-73
2022/03/20 08:57:53;;;;;;;30.23;19.27;;;8.70;57.70;;;7.17;47.30;101684.69;5010086;28;20046;-74
2022/03/20 09:00:22;;;;;;;33.15;19.73;;;8.60;57.30;;;7.27;47.50;101687.44;5005458;28;20052;-74
2022/03/20 09:02:51;;;;;;;35.47;19.80;;;8.70;57.60;;;7.41;47.72;101706.06;5009730;28;20045;-73
2022/03/20 09:05:20;;;;;;;34.25;19.75;;;8.70;58.00;;;7.50;47.33;101702.53;5009812;28;20054;-73
2022/03/20 09:07:50;;;;;;;30.25;19.13;;;8.80;57.80;;;7.61;47.32;101705.13;5010031;28;20077;-76
2022/03/20 09:10:18;;;;;;;33.17;19.85;;;8.80;57.90;;;7.73;46.92;101718.59;5009057;28;20042;-74
2022/03/20 09:12:46;;;;;;;31.83;19.77;;;8.90;58.40;;;7.79;47.57;101716.22;5009496;28;20077;-74
2022/03/20 09:15:18;;;;;;;30.77;19.65;;;8.90;58.20;;;7.92;47.81;101698.84;5009895;28;20073;-74
2022/03/20 09:20:32;;;;;;;33.33;18.75;;;9.10;58.30;;;8.13;46.94;101693.31;5009305;28;19925;-74
2022/03/20 09:23:00;;;;;;;30.90;18.80;;;9.20;58.30;;;8.07;47.54;101700.16;5009520;28;20074;-74
2022/03/20 09:25:27;;;;;;;36.10;21.40;;;9.20;57.90;;;8.01;47.39;101698.00;5009395;28;20038;-74
2022/03/20 09:27:54;;;;;;;36.13;21.38;;;9.30;58.00;;;8.03;47.86;101694.19;5009045;28;20575;-76
2022/03/20 09:30:23;;;;;;;32.17;20.25;;;9.30;58.20;;;8.08;47.87;101698.31;5008309;28;20041;-76
2022/03/20 09:32:51;;;;;;;30.75;20.25;;;9.30;59.10;;;8.13;47.52;101705.03;5008921;28;20081;-76
2022/03/20 09:35:19;;;;;;;34.60;20.85;;;9.30;58.10;;;8.11;47.75;101707.03;5009523;28;20050;-76
2022/03/20 09:37:47;;;;;;;33.40;20.65;;;9.30;58.80;;;8.26;47.72;101693.06;5008874;28;20073;-75
2022/03/20 09:40:15;;;;;;;35.17;22.10;;;9.40;58.90;;;8.36;48.18;101694.81;5008698;28;20452;-76
2022/03/20 09:42:43;;;;;;;36.55;20.85;;;9.40;58.70;;;8.51;47.56;101678.13;5008947;28;20050;-76
2022/03/20 09:45:11;;;;;;;36.60;20.95;;;9.50;59.20;;;8.55;47.43;101672.28;5009335;28;20064;-77
2022/03/20 09:47:42;;;;;;;35.65;20.50;;;9.50;59.00;;;8.57;47.85;101669.44;5009188;28;20042;-77
2022/03/20 09:50:11;;;;;;;31.42;20.88;;;9.60;58.80;;;8.59;47.43;101668.28;5003315;28;20124;-77
2022/03/20 09:52:40;;;;;;;33.95;21.98;;;9.70;59.00;;;8.67;47.75;101672.13;5006358;28;20038;-77
2022/03/20 09:55:10;;;;;;;35.95;21.88;;;9.70;59.50;;;8.67;47.41;101670.28;5006010;28;20124;-77
2022/03/20 09:57:38;;;;;;;38.83;22.23;;;9.70;58.70;;;8.75;47.18;101661.41;5006193;28;20132;-77
2022/03/20 10:00:11;;;;;;;34.55;21.40;;;9.80;58.90;;;8.76;47.58;101669.41;5005483;28;20037;-77
2022/03/20 10:02:40;;;;;;;36.20;22.45;;;9.80;58.50;;;8.89;48.11;101666.41;5006119;28;20049;-77
2022/03/20 10:05:10;;;;;;;34.65;21.98;;;9.90;59.40;;;9.05;47.92;101663.09;5005835;28;20048;-77
2022/03/20 10:07:40;;;;;;;36.08;22.17;;;9.90;59.90;;;9.10;48.38;101660.78;4988225;28;20424;-77
2022/03/20 10:10:14;;;;;;;33.85;21.85;;;10.00;59.60;;;9.09;48.13;101653.63;5005981;28;20397;-77
2022/03/20 10:12:47;;;;;;;33.72;21.85;;;10.00;59.40;;;9.02;48.00;101652.50;5006564;28;20046;-77
2022/03/20 10:15:30;;;;;;;32.42;21.70;;;10.00;59.00;;;9.01;47.95;101648.09;5005632;28;20056;-77
2022/03/20 10:18:14;;;;;;;40.22;23.35;;;10.00;59.20;;;8.97;48.00;101642.09;5006351;28;20053;-77
2022/03/20 10:20:46;;;;;;;34.45;22.75;;;10.10;59.40;;;8.95;48.58;101646.81;5005555;28;20041;-77
2022/03/20 10:23:32;;;;;;;36.78;22.63;;;10.10;59.70;;;9.08;48.65;101641.06;5006015;28;20068;-77
2022/03/20 10:26:00;;;;;;;36.42;22.55;;;10.10;59.90;;;9.12;48.55;101637.06;4990824;28;20457;-77
2022/03/20 10:28:37;;;;;;;38.70;23.30;;;10.20;59.50;;;9.14;47.99;101640.47;5006172;28;20084;-77
2022/03/20 10:31:07;;;;;;;36.85;22.88;;;10.20;59.60;;;9.26;48.77;101643.88;5004995;28;20054;-77
2022/03/20 10:33:40;;;;;;;35.78;22.75;;;10.30;60.10;;;9.42;48.56;101631.50;5005590;28;20054;-77
2022/03/20 10:36:16;;;;;;;36.13;23.52;;;10.30;60.70;;;9.47;48.14;101634.63;4986483;28;20042;-77
2022/03/20 10:38:46;;;;;;;40.35;24.35;;;10.40;60.10;;;9.57;48.73;101632.72;4986350;28;20058;-77
2022/03/20 10:41:19;;;;;;;38.03;24.33;;;10.50;60.60;;;9.63;48.21;101626.69;4999449;28;20765;-77
2022/03/20 10:43:47;;;;;;;40.17;24.65;;;10.50;60.40;;;9.66;48.53;101622.81;5003691;28;20139;-77
2022/03/20 10:46:21;;;;;;;38.63;24.52;;;10.60;60.00;;;9.67;48.25;101619.06;5004445;28;20098;-77
2022/03/20 10:48:52;;;;;;;42.92;24.17;;;10.60;59.90;;;9.74;48.24;101618.31;5006066;28;20046;-77
2022/03/20 10:51:37;;;;;;;38.15;24.52;;;10.60;60.00;;;9.77;48.36;101620.75;4986029;28;20043;-76
2022/03/20 10:54:08;;;;;;;34.75;23.42;;;10.70;60.30;;;9.77;48.72;101620.75;4993444;28;20073;-76
2022/03/20 10:56:36;;;;;;;42.03;24.90;;;10.70;60.10;;;9.87;48.79;101614.41;5010017;28;20056;-76
2022/03/20 10:59:14;;;;;;;40.90;24.90;;;10.80;60.70;;;9.97;48.28;101609.75;5009439;28;20050;-76